KPSM/PSM METAR and TAF weather

Enter ICAO airport designator
Station Type Date Time Source
KPSM METAR 2019/12/07 16:56 UTC NOAA

KPSM 071656Z 30010KT 10SM FEW030 M02/M11 A3026 RMK AO2A SLP251 T10181109


Station Type Date Time Source
KPSM Decoded METAR 2019/12/07 16:56 UTC NOAA

Pease Air Force Base / Portsmouth, NH, United States (KPSM) 43-05N 070-49W
Dec 07, 2019 - 11:56 AM EST / 2019.12.07 1656 UTC
Wind: from the WNW (300 degrees) at 12 MPH (10 KT):0
Visibility: 10 mile(s):0
Sky conditions: mostly clear
Temperature: 28.8 F (-1.8 C)
Windchill: 19 F (-7 C):1
Dew Point: 12.4 F (-10.9 C)
Relative Humidity: 49%
Pressure (altimeter): 30.26 in. Hg (1024 hPa)
ob: KPSM 071656Z 30010KT 10SM FEW030 M02/M11 A3026 RMK AO2A SLP251 T10181109
cycle: 17

Station Type Date Time Source
KPSM TAF 2019/12/07 18:22 UTC NOAA

TAF KPSM 071720Z 0718/0818 30007KT P6SM FEW040
FM081300 22006KT P6SM SKC

Example: see airport list